sensor_id;sensor_type;location;lat;lon;timestamp;P1;durP1;ratioP1;P2;durP2;ratioP2
24159;SDS011;62385;41.594;23.808;2023-04-30T00:00:31;7.78;;;4.53;;
24159;SDS011;62385;41.594;23.808;2023-04-30T00:02:57;4.00;;;2.13;;
24159;SDS011;62385;41.594;23.808;2023-04-30T00:05:22;6.53;;;2.25;;
24159;SDS011;62385;41.594;23.808;2023-04-30T00:07:48;7.10;;;2.25;;
24159;SDS011;62385;41.594;23.808;2023-04-30T00:10:14;2.67;;;2.13;;
24159;SDS011;62385;41.594;23.808;2023-04-30T00:12:39;8.15;;;2.10;;
24159;SDS011;62385;41.594;23.808;2023-04-30T00:15:06;3.72;;;1.90;;
24159;SDS011;62385;41.594;23.808;2023-04-30T00:17:32;9.15;;;3.58;;
24159;SDS011;62385;41.594;23.808;2023-04-30T00:19:58;3.88;;;2.58;;
24159;SDS011;62385;41.594;23.808;2023-04-30T00:22:24;2.47;;;1.98;;
24159;SDS011;62385;41.594;23.808;2023-04-30T00:24:49;3.67;;;1.98;;
24159;SDS011;62385;41.594;23.808;2023-04-30T00:27:15;9.02;;;2.33;;
24159;SDS011;62385;41.594;23.808;2023-04-30T00:29:41;6.47;;;3.45;;
24159;SDS011;62385;41.594;23.808;2023-04-30T00:32:06;1.98;;;1.50;;
24159;SDS011;62385;41.594;23.808;2023-04-30T00:34:33;3.88;;;1.67;;
24159;SDS011;62385;41.594;23.808;2023-04-30T00:36:59;9.98;;;1.75;;
24159;SDS011;62385;41.594;23.808;2023-04-30T00:39:26;2.63;;;2.42;;
24159;SDS011;62385;41.594;23.808;2023-04-30T00:41:52;2.88;;;2.40;;
24159;SDS011;62385;41.594;23.808;2023-04-30T00:44:17;5.90;;;1.73;;
24159;SDS011;62385;41.594;23.808;2023-04-30T00:46:43;2.08;;;1.38;;
24159;SDS011;62385;41.594;23.808;2023-04-30T00:49:09;4.00;;;1.80;;
24159;SDS011;62385;41.594;23.808;2023-04-30T00:51:34;1.75;;;1.55;;
24159;SDS011;62385;41.594;23.808;2023-04-30T00:54:01;2.50;;;1.10;;
24159;SDS011;62385;41.594;23.808;2023-04-30T00:56:27;1.53;;;1.43;;
24159;SDS011;62385;41.594;23.808;2023-04-30T00:58:55;1.85;;;1.38;;
24159;SDS011;62385;41.594;23.808;2023-04-30T01:01:25;2.17;;;1.27;;
24159;SDS011;62385;41.594;23.808;2023-04-30T01:03:56;1.42;;;1.33;;
24159;SDS011;62385;41.594;23.808;2023-04-30T01:06:22;1.55;;;1.45;;
24159;SDS011;62385;41.594;23.808;2023-04-30T01:08:49;3.88;;;1.98;;
24159;SDS011;62385;41.594;23.808;2023-04-30T01:16:29;1.98;;;1.40;;
24159;SDS011;62385;41.594;23.808;2023-04-30T01:19:01;2.13;;;1.47;;
24159;SDS011;62385;41.594;23.808;2023-04-30T01:21:33;3.57;;;2.27;;
24159;SDS011;62385;41.594;23.808;2023-04-30T01:24:23;2.17;;;1.63;;
24159;SDS011;62385;41.594;23.808;2023-04-30T01:29:58;2.37;;;0.93;;
24159;SDS011;62385;41.594;23.808;2023-04-30T01:32:25;2.63;;;1.13;;
24159;SDS011;62385;41.594;23.808;2023-04-30T01:34:51;1.90;;;1.50;;
24159;SDS011;62385;41.594;23.808;2023-04-30T01:39:56;5.18;;;1.50;;
24159;SDS011;62385;41.594;23.808;2023-04-30T01:53:39;1.67;;;1.17;;
24159;SDS011;62385;41.594;23.808;2023-04-30T01:56:11;4.20;;;2.10;;
24159;SDS011;62385;41.594;23.808;2023-04-30T01:58:51;2.10;;;1.70;;
24159;SDS011;62385;41.594;23.808;2023-04-30T02:01:28;1.57;;;1.13;;
24159;SDS011;62385;41.594;23.808;2023-04-30T02:03:56;2.93;;;2.17;;
24159;SDS011;62385;41.594;23.808;2023-04-30T02:06:23;3.10;;;1.90;;
24159;SDS011;62385;41.594;23.808;2023-04-30T02:08:53;1.50;;;1.40;;
24159;SDS011;62385;41.594;23.808;2023-04-30T02:11:30;4.77;;;2.07;;
24159;SDS011;62385;41.594;23.808;2023-04-30T02:13:56;9.73;;;3.53;;
24159;SDS011;62385;41.594;23.808;2023-04-30T02:16:22;1.87;;;1.33;;
24159;SDS011;62385;41.594;23.808;2023-04-30T02:18:48;1.43;;;1.33;;
24159;SDS011;62385;41.594;23.808;2023-04-30T02:21:14;0.80;;;0.77;;
24159;SDS011;62385;41.594;23.808;2023-04-30T02:23:39;2.30;;;1.30;;
24159;SDS011;62385;41.594;23.808;2023-04-30T02:26:06;2.07;;;1.63;;
24159;SDS011;62385;41.594;23.808;2023-04-30T02:28:32;6.53;;;2.00;;
24159;SDS011;62385;41.594;23.808;2023-04-30T02:30:58;1.70;;;1.30;;
24159;SDS011;62385;41.594;23.808;2023-04-30T02:33:23;1.77;;;1.30;;
24159;SDS011;62385;41.594;23.808;2023-04-30T02:35:50;2.67;;;1.40;;
24159;SDS011;62385;41.594;23.808;2023-04-30T02:38:16;2.97;;;1.73;;
24159;SDS011;62385;41.594;23.808;2023-04-30T02:40:42;4.40;;;2.07;;
24159;SDS011;62385;41.594;23.808;2023-04-30T02:43:08;2.10;;;1.90;;
24159;SDS011;62385;41.594;23.808;2023-04-30T02:45:34;1.83;;;1.73;;
24159;SDS011;62385;41.594;23.808;2023-04-30T02:48:00;1.33;;;1.23;;
24159;SDS011;62385;41.594;23.808;2023-04-30T02:50:27;4.10;;;2.23;;
24159;SDS011;62385;41.594;23.808;2023-04-30T02:52:53;3.33;;;2.10;;
24159;SDS011;62385;41.594;23.808;2023-04-30T02:55:20;7.50;;;3.40;;
24159;SDS011;62385;41.594;23.808;2023-04-30T02:57:45;5.20;;;2.57;;
24159;SDS011;62385;41.594;23.808;2023-04-30T03:00:11;2.57;;;1.87;;
24159;SDS011;62385;41.594;23.808;2023-04-30T03:02:37;4.93;;;2.60;;
24159;SDS011;62385;41.594;23.808;2023-04-30T03:05:03;8.60;;;4.43;;
24159;SDS011;62385;41.594;23.808;2023-04-30T03:07:29;2.83;;;2.07;;
24159;SDS011;62385;41.594;23.808;2023-04-30T03:09:54;2.73;;;1.43;;
24159;SDS011;62385;41.594;23.808;2023-04-30T03:12:20;1.80;;;1.70;;
24159;SDS011;62385;41.594;23.808;2023-04-30T03:14:46;2.27;;;1.97;;
24159;SDS011;62385;41.594;23.808;2023-04-30T03:17:12;2.83;;;1.97;;
24159;SDS011;62385;41.594;23.808;2023-04-30T03:19:37;0.93;;;0.60;;
24159;SDS011;62385;41.594;23.808;2023-04-30T03:22:03;2.03;;;1.40;;
24159;SDS011;62385;41.594;23.808;2023-04-30T03:24:29;2.90;;;1.33;;
24159;SDS011;62385;41.594;23.808;2023-04-30T03:26:55;2.37;;;1.53;;
24159;SDS011;62385;41.594;23.808;2023-04-30T03:29:21;1.50;;;1.20;;
24159;SDS011;62385;41.594;23.808;2023-04-30T03:31:47;0.93;;;0.90;;
24159;SDS011;62385;41.594;23.808;2023-04-30T03:34:12;2.13;;;2.03;;
24159;SDS011;62385;41.594;23.808;2023-04-30T03:36:38;3.27;;;2.93;;
24159;SDS011;62385;41.594;23.808;2023-04-30T03:39:04;1.37;;;1.27;;
24159;SDS011;62385;41.594;23.808;2023-04-30T03:41:30;2.27;;;1.37;;
24159;SDS011;62385;41.594;23.808;2023-04-30T03:43:55;2.40;;;1.93;;
24159;SDS011;62385;41.594;23.808;2023-04-30T03:46:21;3.85;;;1.75;;
24159;SDS011;62385;41.594;23.808;2023-04-30T03:48:47;1.87;;;1.53;;
24159;SDS011;62385;41.594;23.808;2023-04-30T03:51:12;14.40;;;2.97;;
24159;SDS011;62385;41.594;23.808;2023-04-30T03:53:38;3.73;;;1.97;;
24159;SDS011;62385;41.594;23.808;2023-04-30T03:56:04;3.83;;;2.60;;
24159;SDS011;62385;41.594;23.808;2023-04-30T03:58:31;11.60;;;5.67;;
24159;SDS011;62385;41.594;23.808;2023-04-30T04:00:56;4.93;;;2.53;;
24159;SDS011;62385;41.594;23.808;2023-04-30T04:03:23;4.80;;;2.73;;
24159;SDS011;62385;41.594;23.808;2023-04-30T04:05:48;2.20;;;1.92;;
24159;SDS011;62385;41.594;23.808;2023-04-30T04:08:14;2.20;;;1.30;;
24159;SDS011;62385;41.594;23.808;2023-04-30T04:10:40;1.95;;;1.65;;
24159;SDS011;62385;41.594;23.808;2023-04-30T04:13:07;4.87;;;2.93;;
24159;SDS011;62385;41.594;23.808;2023-04-30T04:15:34;2.23;;;1.40;;
24159;SDS011;62385;41.594;23.808;2023-04-30T04:18:00;2.10;;;1.90;;
24159;SDS011;62385;41.594;23.808;2023-04-30T04:20:26;22.77;;;2.27;;
24159;SDS011;62385;41.594;23.808;2023-04-30T04:22:52;13.53;;;7.40;;
24159;SDS011;62385;41.594;23.808;2023-04-30T04:25:18;5.93;;;3.23;;
24159;SDS011;62385;41.594;23.808;2023-04-30T04:27:44;3.90;;;2.73;;
24159;SDS011;62385;41.594;23.808;2023-04-30T04:30:10;6.10;;;3.60;;
24159;SDS011;62385;41.594;23.808;2023-04-30T04:32:38;15.33;;;4.93;;
24159;SDS011;62385;41.594;23.808;2023-04-30T04:35:12;3.33;;;2.50;;
24159;SDS011;62385;41.594;23.808;2023-04-30T04:37:39;10.43;;;5.93;;
24159;SDS011;62385;41.594;23.808;2023-04-30T04:40:05;4.45;;;1.77;;
24159;SDS011;62385;41.594;23.808;2023-04-30T04:42:32;5.40;;;3.85;;
24159;SDS011;62385;41.594;23.808;2023-04-30T04:44:57;8.40;;;4.30;;
24159;SDS011;62385;41.594;23.808;2023-04-30T04:47:24;5.85;;;4.15;;
24159;SDS011;62385;41.594;23.808;2023-04-30T04:49:50;50.20;;;16.77;;
24159;SDS011;62385;41.594;23.808;2023-04-30T04:52:15;15.38;;;7.85;;
24159;SDS011;62385;41.594;23.808;2023-04-30T04:54:41;15.35;;;5.72;;
24159;SDS011;62385;41.594;23.808;2023-04-30T04:57:06;28.33;;;10.85;;
24159;SDS011;62385;41.594;23.808;2023-04-30T04:59:32;26.75;;;9.85;;
24159;SDS011;62385;41.594;23.808;2023-04-30T05:01:58;7.38;;;5.05;;
24159;SDS011;62385;41.594;23.808;2023-04-30T05:04:23;18.02;;;7.18;;
24159;SDS011;62385;41.594;23.808;2023-04-30T05:06:49;6.90;;;2.95;;
24159;SDS011;62385;41.594;23.808;2023-04-30T05:09:15;7.97;;;4.00;;
24159;SDS011;62385;41.594;23.808;2023-04-30T05:11:40;9.73;;;4.60;;
24159;SDS011;62385;41.594;23.808;2023-04-30T05:14:08;2.90;;;2.28;;
24159;SDS011;62385;41.594;23.808;2023-04-30T05:16:33;9.10;;;5.38;;
24159;SDS011;62385;41.594;23.808;2023-04-30T05:18:59;4.03;;;3.03;;
24159;SDS011;62385;41.594;23.808;2023-04-30T05:21:25;3.60;;;2.78;;
24159;SDS011;62385;41.594;23.808;2023-04-30T05:23:50;18.10;;;8.93;;
24159;SDS011;62385;41.594;23.808;2023-04-30T05:26:16;12.85;;;6.03;;
24159;SDS011;62385;41.594;23.808;2023-04-30T05:28:41;7.50;;;3.65;;
24159;SDS011;62385;41.594;23.808;2023-04-30T05:31:07;17.50;;;7.13;;
24159;SDS011;62385;41.594;23.808;2023-04-30T05:33:33;9.98;;;5.57;;
24159;SDS011;62385;41.594;23.808;2023-04-30T05:36:01;4.43;;;2.42;;
24159;SDS011;62385;41.594;23.808;2023-04-30T05:38:26;11.80;;;5.10;;
24159;SDS011;62385;41.594;23.808;2023-04-30T05:40:52;19.50;;;9.35;;
24159;SDS011;62385;41.594;23.808;2023-04-30T05:43:18;6.57;;;3.60;;
24159;SDS011;62385;41.594;23.808;2023-04-30T05:45:43;8.02;;;4.50;;
24159;SDS011;62385;41.594;23.808;2023-04-30T05:48:09;9.75;;;4.00;;
24159;SDS011;62385;41.594;23.808;2023-04-30T05:50:34;14.20;;;5.93;;
24159;SDS011;62385;41.594;23.808;2023-04-30T05:53:00;7.30;;;3.40;;
24159;SDS011;62385;41.594;23.808;2023-04-30T05:55:26;6.05;;;4.60;;
24159;SDS011;62385;41.594;23.808;2023-04-30T05:57:51;6.10;;;3.78;;
24159;SDS011;62385;41.594;23.808;2023-04-30T06:00:17;3.85;;;2.92;;
24159;SDS011;62385;41.594;23.808;2023-04-30T06:02:43;10.02;;;2.85;;
24159;SDS011;62385;41.594;23.808;2023-04-30T06:05:08;5.10;;;3.88;;
24159;SDS011;62385;41.594;23.808;2023-04-30T06:07:34;6.40;;;3.33;;
24159;SDS011;62385;41.594;23.808;2023-04-30T06:09:59;6.07;;;3.22;;
24159;SDS011;62385;41.594;23.808;2023-04-30T06:12:26;4.95;;;3.05;;
24159;SDS011;62385;41.594;23.808;2023-04-30T06:14:52;6.40;;;3.65;;
24159;SDS011;62385;41.594;23.808;2023-04-30T06:17:17;3.90;;;3.40;;
24159;SDS011;62385;41.594;23.808;2023-04-30T06:19:43;13.20;;;5.30;;
24159;SDS011;62385;41.594;23.808;2023-04-30T06:22:08;6.25;;;3.50;;
24159;SDS011;62385;41.594;23.808;2023-04-30T06:24:34;10.35;;;4.15;;
24159;SDS011;62385;41.594;23.808;2023-04-30T06:27:00;5.03;;;2.90;;
24159;SDS011;62385;41.594;23.808;2023-04-30T06:29:25;5.70;;;3.10;;
24159;SDS011;62385;41.594;23.808;2023-04-30T06:31:52;3.22;;;2.65;;
24159;SDS011;62385;41.594;23.808;2023-04-30T06:34:18;7.20;;;4.22;;
24159;SDS011;62385;41.594;23.808;2023-04-30T06:36:44;7.28;;;3.47;;
24159;SDS011;62385;41.594;23.808;2023-04-30T06:39:09;11.10;;;2.63;;
24159;SDS011;62385;41.594;23.808;2023-04-30T06:41:35;3.10;;;2.58;;
24159;SDS011;62385;41.594;23.808;2023-04-30T06:44:08;11.52;;;5.13;;
24159;SDS011;62385;41.594;23.808;2023-04-30T06:46:34;2.28;;;1.80;;
24159;SDS011;62385;41.594;23.808;2023-04-30T06:48:59;3.00;;;2.67;;
24159;SDS011;62385;41.594;23.808;2023-04-30T06:51:25;5.55;;;2.65;;
24159;SDS011;62385;41.594;23.808;2023-04-30T06:53:51;4.00;;;2.40;;
24159;SDS011;62385;41.594;23.808;2023-04-30T06:56:18;2.42;;;2.17;;
24159;SDS011;62385;41.594;23.808;2023-04-30T06:58:45;4.40;;;2.60;;
24159;SDS011;62385;41.594;23.808;2023-04-30T07:01:11;1.95;;;1.80;;
24159;SDS011;62385;41.594;23.808;2023-04-30T07:03:37;4.03;;;2.00;;
24159;SDS011;62385;41.594;23.808;2023-04-30T07:06:03;6.68;;;2.75;;
24159;SDS011;62385;41.594;23.808;2023-04-30T07:08:29;6.30;;;2.25;;
24159;SDS011;62385;41.594;23.808;2023-04-30T07:10:54;2.85;;;1.70;;
24159;SDS011;62385;41.594;23.808;2023-04-30T07:13:20;1.83;;;1.50;;
24159;SDS011;62385;41.594;23.808;2023-04-30T07:15:46;3.40;;;1.92;;
24159;SDS011;62385;41.594;23.808;2023-04-30T07:18:11;2.80;;;1.60;;
24159;SDS011;62385;41.594;23.808;2023-04-30T07:20:37;3.92;;;2.15;;
24159;SDS011;62385;41.594;23.808;2023-04-30T07:23:02;2.90;;;1.35;;
24159;SDS011;62385;41.594;23.808;2023-04-30T07:25:29;9.45;;;1.27;;
24159;SDS011;62385;41.594;23.808;2023-04-30T07:27:55;3.25;;;2.90;;
24159;SDS011;62385;41.594;23.808;2023-04-30T07:30:20;6.53;;;2.05;;
24159;SDS011;62385;41.594;23.808;2023-04-30T07:32:46;2.78;;;1.70;;
24159;SDS011;62385;41.594;23.808;2023-04-30T07:35:12;4.55;;;3.15;;
24159;SDS011;62385;41.594;23.808;2023-04-30T07:37:39;3.78;;;2.22;;
24159;SDS011;62385;41.594;23.808;2023-04-30T07:40:05;1.40;;;1.10;;
24159;SDS011;62385;41.594;23.808;2023-04-30T07:42:37;10.38;;;1.90;;
24159;SDS011;62385;41.594;23.808;2023-04-30T07:45:06;6.72;;;2.72;;
24159;SDS011;62385;41.594;23.808;2023-04-30T07:47:33;12.10;;;2.20;;
24159;SDS011;62385;41.594;23.808;2023-04-30T07:49:59;1.80;;;1.67;;
24159;SDS011;62385;41.594;23.808;2023-04-30T07:52:24;3.13;;;2.03;;
24159;SDS011;62385;41.594;23.808;2023-04-30T07:54:50;2.95;;;1.85;;
24159;SDS011;62385;41.594;23.808;2023-04-30T07:57:15;2.67;;;2.10;;
24159;SDS011;62385;41.594;23.808;2023-04-30T07:59:41;7.70;;;2.97;;
24159;SDS011;62385;41.594;23.808;2023-04-30T08:02:08;3.55;;;1.90;;
24159;SDS011;62385;41.594;23.808;2023-04-30T08:04:34;4.25;;;2.35;;
24159;SDS011;62385;41.594;23.808;2023-04-30T08:07:00;1.70;;;1.08;;
24159;SDS011;62385;41.594;23.808;2023-04-30T08:09:28;3.33;;;2.03;;
24159;SDS011;62385;41.594;23.808;2023-04-30T08:11:56;2.17;;;1.98;;
24159;SDS011;62385;41.594;23.808;2023-04-30T08:14:22;3.03;;;2.72;;
24159;SDS011;62385;41.594;23.808;2023-04-30T08:16:47;3.75;;;1.58;;
24159;SDS011;62385;41.594;23.808;2023-04-30T08:19:13;3.03;;;2.05;;
24159;SDS011;62385;41.594;23.808;2023-04-30T08:21:38;3.47;;;2.10;;
24159;SDS011;62385;41.594;23.808;2023-04-30T08:24:04;3.33;;;2.42;;
24159;SDS011;62385;41.594;23.808;2023-04-30T08:26:29;4.07;;;1.88;;
24159;SDS011;62385;41.594;23.808;2023-04-30T08:28:55;2.45;;;1.63;;
24159;SDS011;62385;41.594;23.808;2023-04-30T08:31:21;7.03;;;4.15;;
24159;SDS011;62385;41.594;23.808;2023-04-30T08:33:46;5.50;;;3.17;;
24159;SDS011;62385;41.594;23.808;2023-04-30T08:36:13;39.45;;;15.10;;
24159;SDS011;62385;41.594;23.808;2023-04-30T08:38:39;34.38;;;12.93;;
24159;SDS011;62385;41.594;23.808;2023-04-30T08:41:08;11.63;;;6.85;;
24159;SDS011;62385;41.594;23.808;2023-04-30T08:43:41;13.65;;;6.47;;
24159;SDS011;62385;41.594;23.808;2023-04-30T08:46:08;4.45;;;2.13;;
24159;SDS011;62385;41.594;23.808;2023-04-30T08:48:37;5.78;;;3.95;;
24159;SDS011;62385;41.594;23.808;2023-04-30T08:51:03;1.90;;;1.60;;
24159;SDS011;62385;41.594;23.808;2023-04-30T08:53:29;1.65;;;1.42;;
24159;SDS011;62385;41.594;23.808;2023-04-30T08:55:58;2.03;;;1.25;;
24159;SDS011;62385;41.594;23.808;2023-04-30T08:58:24;1.70;;;1.40;;
24159;SDS011;62385;41.594;23.808;2023-04-30T09:00:50;1.77;;;1.35;;
24159;SDS011;62385;41.594;23.808;2023-04-30T09:03:15;2.13;;;1.92;;
24159;SDS011;62385;41.594;23.808;2023-04-30T09:05:41;3.15;;;1.73;;
24159;SDS011;62385;41.594;23.808;2023-04-30T09:08:07;2.05;;;1.25;;
24159;SDS011;62385;41.594;23.808;2023-04-30T09:10:34;1.02;;;0.80;;
24159;SDS011;62385;41.594;23.808;2023-04-30T09:13:03;2.50;;;1.30;;
24159;SDS011;62385;41.594;23.808;2023-04-30T09:15:31;2.60;;;1.65;;
24159;SDS011;62385;41.594;23.808;2023-04-30T09:18:09;1.23;;;1.10;;
24159;SDS011;62385;41.594;23.808;2023-04-30T09:20:52;1.52;;;1.02;;
24159;SDS011;62385;41.594;23.808;2023-04-30T09:23:22;1.23;;;1.13;;
24159;SDS011;62385;41.594;23.808;2023-04-30T09:25:48;2.10;;;1.60;;
24159;SDS011;62385;41.594;23.808;2023-04-30T09:28:14;4.28;;;2.15;;
24159;SDS011;62385;41.594;23.808;2023-04-30T09:30:40;3.72;;;1.88;;
24159;SDS011;62385;41.594;23.808;2023-04-30T09:33:07;1.45;;;1.35;;
24159;SDS011;62385;41.594;23.808;2023-04-30T09:35:33;1.05;;;0.82;;
24159;SDS011;62385;41.594;23.808;2023-04-30T09:38:00;3.55;;;1.27;;
24159;SDS011;62385;41.594;23.808;2023-04-30T09:40:39;1.45;;;1.20;;
24159;SDS011;62385;41.594;23.808;2023-04-30T09:43:06;1.45;;;1.20;;
24159;SDS011;62385;41.594;23.808;2023-04-30T09:45:42;1.50;;;1.00;;
24159;SDS011;62385;41.594;23.808;2023-04-30T09:48:16;1.35;;;1.08;;
24159;SDS011;62385;41.594;23.808;2023-04-30T09:50:43;1.00;;;0.90;;
24159;SDS011;62385;41.594;23.808;2023-04-30T09:53:12;3.38;;;0.95;;
24159;SDS011;62385;41.594;23.808;2023-04-30T09:55:41;4.80;;;1.42;;
24159;SDS011;62385;41.594;23.808;2023-04-30T09:58:07;1.10;;;0.93;;
24159;SDS011;62385;41.594;23.808;2023-04-30T10:00:35;2.42;;;1.52;;
24159;SDS011;62385;41.594;23.808;2023-04-30T10:03:05;5.18;;;2.47;;
24159;SDS011;62385;41.594;23.808;2023-04-30T10:05:40;1.58;;;1.30;;
24159;SDS011;62385;41.594;23.808;2023-04-30T10:10:52;1.05;;;0.98;;
24159;SDS011;62385;41.594;23.808;2023-04-30T10:13:28;1.95;;;1.42;;
24159;SDS011;62385;41.594;23.808;2023-04-30T10:16:00;1.00;;;0.90;;
24159;SDS011;62385;41.594;23.808;2023-04-30T10:18:32;1.25;;;0.80;;
24159;SDS011;62385;41.594;23.808;2023-04-30T10:21:05;1.50;;;0.85;;
24159;SDS011;62385;41.594;23.808;2023-04-30T10:23:36;1.73;;;1.30;;
24159;SDS011;62385;41.594;23.808;2023-04-30T10:26:03;1.10;;;1.00;;
24159;SDS011;62385;41.594;23.808;2023-04-30T10:28:31;1.63;;;1.35;;
24159;SDS011;62385;41.594;23.808;2023-04-30T10:30:56;1.48;;;1.20;;
24159;SDS011;62385;41.594;23.808;2023-04-30T10:36:32;1.35;;;0.60;;
24159;SDS011;62385;41.594;23.808;2023-04-30T10:39:05;0.65;;;0.52;;
24159;SDS011;62385;41.594;23.808;2023-04-30T10:41:31;1.05;;;0.90;;
24159;SDS011;62385;41.594;23.808;2023-04-30T10:43:57;0.70;;;0.60;;
24159;SDS011;62385;41.594;23.808;2023-04-30T10:46:26;2.58;;;1.77;;
24159;SDS011;62385;41.594;23.808;2023-04-30T10:48:53;1.20;;;1.00;;
24159;SDS011;62385;41.594;23.808;2023-04-30T10:51:19;3.92;;;1.77;;
24159;SDS011;62385;41.594;23.808;2023-04-30T10:53:49;1.38;;;1.02;;
24159;SDS011;62385;41.594;23.808;2023-04-30T10:56:32;0.90;;;0.73;;
24159;SDS011;62385;41.594;23.808;2023-04-30T10:58:59;1.40;;;0.95;;
24159;SDS011;62385;41.594;23.808;2023-04-30T11:01:26;2.65;;;1.02;;
24159;SDS011;62385;41.594;23.808;2023-04-30T11:04:06;0.95;;;0.82;;
24159;SDS011;62385;41.594;23.808;2023-04-30T11:09:38;0.88;;;0.82;;
24159;SDS011;62385;41.594;23.808;2023-04-30T11:12:14;2.00;;;1.25;;
24159;SDS011;62385;41.594;23.808;2023-04-30T11:14:44;5.57;;;1.88;;
24159;SDS011;62385;41.594;23.808;2023-04-30T11:17:11;0.90;;;0.80;;
24159;SDS011;62385;41.594;23.808;2023-04-30T11:19:50;1.55;;;1.10;;
24159;SDS011;62385;41.594;23.808;2023-04-30T11:22:17;1.92;;;1.58;;
24159;SDS011;62385;41.594;23.808;2023-04-30T11:24:52;2.17;;;1.33;;
24159;SDS011;62385;41.594;23.808;2023-04-30T11:29:51;1.15;;;1.00;;
24159;SDS011;62385;41.594;23.808;2023-04-30T11:32:18;0.70;;;0.60;;
24159;SDS011;62385;41.594;23.808;2023-04-30T11:34:45;0.82;;;0.70;;
24159;SDS011;62385;41.594;23.808;2023-04-30T11:37:11;0.90;;;0.60;;
24159;SDS011;62385;41.594;23.808;2023-04-30T11:39:41;0.50;;;0.50;;
24159;SDS011;62385;41.594;23.808;2023-04-30T11:42:08;0.60;;;0.52;;
24159;SDS011;62385;41.594;23.808;2023-04-30T11:44:37;0.63;;;0.63;;
24159;SDS011;62385;41.594;23.808;2023-04-30T11:47:03;1.20;;;0.63;;
24159;SDS011;62385;41.594;23.808;2023-04-30T11:49:29;1.27;;;0.88;;
24159;SDS011;62385;41.594;23.808;2023-04-30T11:51:55;0.60;;;0.40;;
24159;SDS011;62385;41.594;23.808;2023-04-30T11:54:20;0.35;;;0.30;;
24159;SDS011;62385;41.594;23.808;2023-04-30T11:56:47;0.40;;;0.30;;
24159;SDS011;62385;41.594;23.808;2023-04-30T11:59:13;0.65;;;0.40;;
24159;SDS011;62385;41.594;23.808;2023-04-30T12:01:41;0.70;;;0.45;;
24159;SDS011;62385;41.594;23.808;2023-04-30T12:04:07;0.93;;;0.38;;
24159;SDS011;62385;41.594;23.808;2023-04-30T12:06:33;1.27;;;0.50;;
24159;SDS011;62385;41.594;23.808;2023-04-30T12:09:00;0.60;;;0.38;;
24159;SDS011;62385;41.594;23.808;2023-04-30T12:11:29;0.50;;;0.30;;
24159;SDS011;62385;41.594;23.808;2023-04-30T12:14:03;0.82;;;0.47;;
24159;SDS011;62385;41.594;23.808;2023-04-30T12:16:47;1.05;;;0.82;;
24159;SDS011;62385;41.594;23.808;2023-04-30T12:19:14;0.63;;;0.52;;
24159;SDS011;62385;41.594;23.808;2023-04-30T12:21:41;1.02;;;0.50;;
24159;SDS011;62385;41.594;23.808;2023-04-30T12:24:15;0.50;;;0.50;;
24159;SDS011;62385;41.594;23.808;2023-04-30T12:26:42;0.77;;;0.70;;
24159;SDS011;62385;41.594;23.808;2023-04-30T12:29:09;0.68;;;0.30;;
24159;SDS011;62385;41.594;23.808;2023-04-30T12:31:42;0.50;;;0.50;;
24159;SDS011;62385;41.594;23.808;2023-04-30T12:34:09;0.63;;;0.50;;
24159;SDS011;62385;41.594;23.808;2023-04-30T12:36:38;0.70;;;0.60;;
24159;SDS011;62385;41.594;23.808;2023-04-30T12:41:39;0.60;;;0.60;;
24159;SDS011;62385;41.594;23.808;2023-04-30T12:46:43;0.95;;;0.60;;
24159;SDS011;62385;41.594;23.808;2023-04-30T12:49:10;0.70;;;0.47;;
24159;SDS011;62385;41.594;23.808;2023-04-30T12:51:36;0.68;;;0.60;;
24159;SDS011;62385;41.594;23.808;2023-04-30T12:54:05;0.68;;;0.30;;
24159;SDS011;62385;41.594;23.808;2023-04-30T12:56:31;0.50;;;0.40;;
24159;SDS011;62385;41.594;23.808;2023-04-30T12:58:56;0.77;;;0.65;;
24159;SDS011;62385;41.594;23.808;2023-04-30T13:01:23;1.73;;;0.47;;
24159;SDS011;62385;41.594;23.808;2023-04-30T13:03:50;0.90;;;0.75;;
24159;SDS011;62385;41.594;23.808;2023-04-30T13:06:16;0.75;;;0.50;;
24159;SDS011;62385;41.594;23.808;2023-04-30T13:08:42;0.98;;;0.40;;
24159;SDS011;62385;41.594;23.808;2023-04-30T13:11:08;0.40;;;0.40;;
24159;SDS011;62385;41.594;23.808;2023-04-30T13:13:34;1.60;;;0.60;;
24159;SDS011;62385;41.594;23.808;2023-04-30T13:16:01;0.70;;;0.57;;
24159;SDS011;62385;41.594;23.808;2023-04-30T13:18:31;0.63;;;0.50;;
24159;SDS011;62385;41.594;23.808;2023-04-30T13:20:57;0.73;;;0.60;;
24159;SDS011;62385;41.594;23.808;2023-04-30T13:23:22;1.00;;;0.63;;
24159;SDS011;62385;41.594;23.808;2023-04-30T13:25:48;0.60;;;0.60;;
24159;SDS011;62385;41.594;23.808;2023-04-30T13:28:13;0.75;;;0.70;;
24159;SDS011;62385;41.594;23.808;2023-04-30T13:30:40;0.52;;;0.52;;
24159;SDS011;62385;41.594;23.808;2023-04-30T13:33:06;0.50;;;0.50;;
24159;SDS011;62385;41.594;23.808;2023-04-30T13:35:31;0.85;;;0.80;;
24159;SDS011;62385;41.594;23.808;2023-04-30T13:37:58;0.60;;;0.50;;
24159;SDS011;62385;41.594;23.808;2023-04-30T13:40:24;0.65;;;0.47;;
24159;SDS011;62385;41.594;23.808;2023-04-30T13:42:51;0.55;;;0.50;;
24159;SDS011;62385;41.594;23.808;2023-04-30T13:45:16;0.60;;;0.50;;
24159;SDS011;62385;41.594;23.808;2023-04-30T13:47:42;1.05;;;0.77;;
24159;SDS011;62385;41.594;23.808;2023-04-30T13:50:08;1.02;;;0.68;;
24159;SDS011;62385;41.594;23.808;2023-04-30T13:52:34;0.60;;;0.60;;
24159;SDS011;62385;41.594;23.808;2023-04-30T13:55:00;1.30;;;0.70;;
24159;SDS011;62385;41.594;23.808;2023-04-30T13:57:25;0.63;;;0.50;;
24159;SDS011;62385;41.594;23.808;2023-04-30T13:59:54;0.85;;;0.73;;
24159;SDS011;62385;41.594;23.808;2023-04-30T14:02:20;0.65;;;0.52;;
24159;SDS011;62385;41.594;23.808;2023-04-30T14:04:45;1.10;;;0.82;;
24159;SDS011;62385;41.594;23.808;2023-04-30T14:07:12;0.70;;;0.47;;
24159;SDS011;62385;41.594;23.808;2023-04-30T14:09:37;1.42;;;0.75;;
24159;SDS011;62385;41.594;23.808;2023-04-30T14:12:03;1.25;;;0.50;;
24159;SDS011;62385;41.594;23.808;2023-04-30T14:14:29;0.68;;;0.60;;
24159;SDS011;62385;41.594;23.808;2023-04-30T14:16:56;1.25;;;0.77;;
24159;SDS011;62385;41.594;23.808;2023-04-30T14:19:21;1.02;;;0.60;;
24159;SDS011;62385;41.594;23.808;2023-04-30T14:21:47;2.03;;;0.90;;
24159;SDS011;62385;41.594;23.808;2023-04-30T14:24:13;1.08;;;0.63;;
24159;SDS011;62385;41.594;23.808;2023-04-30T14:26:41;1.15;;;0.77;;
24159;SDS011;62385;41.594;23.808;2023-04-30T14:29:07;2.78;;;0.80;;
24159;SDS011;62385;41.594;23.808;2023-04-30T14:31:33;1.00;;;0.70;;
24159;SDS011;62385;41.594;23.808;2023-04-30T14:33:59;1.35;;;1.15;;
24159;SDS011;62385;41.594;23.808;2023-04-30T14:36:24;1.00;;;0.90;;
24159;SDS011;62385;41.594;23.808;2023-04-30T14:38:51;2.33;;;1.23;;
24159;SDS011;62385;41.594;23.808;2023-04-30T14:41:17;2.92;;;1.20;;
24159;SDS011;62385;41.594;23.808;2023-04-30T14:43:43;3.00;;;0.80;;
24159;SDS011;62385;41.594;23.808;2023-04-30T14:46:08;0.77;;;0.57;;
24159;SDS011;62385;41.594;23.808;2023-04-30T14:48:34;6.70;;;1.02;;
24159;SDS011;62385;41.594;23.808;2023-04-30T14:51:00;0.90;;;0.70;;
24159;SDS011;62385;41.594;23.808;2023-04-30T14:53:25;0.60;;;0.50;;
24159;SDS011;62385;41.594;23.808;2023-04-30T14:55:51;1.67;;;0.80;;
24159;SDS011;62385;41.594;23.808;2023-04-30T14:58:17;0.40;;;0.40;;
24159;SDS011;62385;41.594;23.808;2023-04-30T15:00:43;0.98;;;0.40;;
24159;SDS011;62385;41.594;23.808;2023-04-30T15:03:09;0.60;;;0.52;;
24159;SDS011;62385;41.594;23.808;2023-04-30T15:05:34;0.95;;;0.85;;
24159;SDS011;62385;41.594;23.808;2023-04-30T15:08:00;1.70;;;1.02;;
24159;SDS011;62385;41.594;23.808;2023-04-30T15:10:26;1.15;;;0.80;;